createdAt,value
2018-06-21T00:01:43.563Z,5.60
2018-06-21T00:04:11.065Z,5.60
2018-06-21T00:06:38.877Z,4.70
2018-06-21T00:09:06.748Z,5.60
2018-06-21T00:11:34.352Z,5.60
2018-06-21T00:14:02.025Z,5.30
2018-06-21T00:16:29.728Z,5.37
2018-06-21T00:18:57.306Z,5.27
2018-06-21T00:21:24.826Z,5.63
2018-06-21T00:23:52.361Z,4.70
2018-06-21T00:26:19.945Z,5.20
2018-06-21T00:28:47.477Z,5.63
2018-06-21T00:31:15.060Z,5.17
2018-06-21T00:33:42.622Z,4.70
2018-06-21T00:36:10.213Z,5.00
2018-06-21T00:38:37.790Z,6.00
2018-06-21T00:41:05.374Z,5.50
2018-06-21T00:43:32.994Z,5.90
2018-06-21T00:46:00.597Z,5.00
2018-06-21T00:48:28.106Z,5.93
2018-06-21T00:50:55.704Z,5.60
2018-06-21T00:53:23.295Z,5.30
2018-06-21T00:56:02.434Z,5.80
2018-06-21T00:58:30.081Z,5.60
2018-06-21T01:00:57.590Z,5.47
2018-06-21T01:03:25.110Z,6.30
2018-06-21T01:05:52.665Z,5.60
2018-06-21T01:08:20.533Z,6.80
2018-06-21T01:10:48.431Z,6.90
2018-06-21T01:13:15.932Z,6.63
2018-06-21T01:15:43.770Z,6.37
2018-06-21T01:18:11.274Z,6.57
2018-06-21T01:20:38.966Z,6.93
2018-06-21T01:23:06.406Z,7.27
2018-06-21T01:25:33.872Z,6.63
2018-06-21T01:28:01.379Z,6.33
2018-06-21T01:30:29.347Z,6.10
2018-06-21T01:32:57.136Z,7.30
2018-06-21T01:35:24.590Z,6.60
2018-06-21T01:37:52.046Z,7.10
2018-06-21T01:40:19.511Z,7.17
2018-06-21T01:42:46.973Z,8.27
2018-06-21T01:45:14.517Z,7.50
2018-06-21T01:47:42.040Z,8.50
2018-06-21T01:50:09.583Z,9.07
2018-06-21T01:52:37.126Z,10.10
2018-06-21T01:55:04.681Z,9.37
2018-06-21T01:57:32.224Z,9.63
2018-06-21T01:59:59.679Z,9.30
2018-06-21T02:02:27.151Z,8.40
2018-06-21T02:04:54.692Z,9.00
2018-06-21T02:07:22.364Z,10.03
2018-06-21T02:09:50.223Z,9.40
2018-06-21T02:12:17.793Z,9.00
2018-06-21T02:14:45.503Z,9.40
2018-06-21T02:17:13.096Z,10.27
2018-06-21T02:19:40.590Z,10.80
2018-06-21T02:22:08.094Z,9.30
2018-06-21T02:24:35.578Z,9.10
2018-06-21T02:27:03.171Z,9.60
2018-06-21T02:29:30.819Z,10.07
2018-06-21T02:31:58.462Z,9.63
2018-06-21T02:34:26.123Z,8.67
2018-06-21T02:36:53.525Z,8.40
2018-06-21T02:39:21.040Z,8.47
2018-06-21T02:41:48.672Z,8.10
2018-06-21T02:44:16.235Z,8.50
2018-06-21T02:46:43.798Z,7.60
2018-06-21T02:49:11.302Z,8.40
2018-06-21T02:51:38.829Z,7.57
2018-06-21T02:54:06.347Z,7.77
2018-06-21T02:56:33.980Z,7.97
2018-06-21T02:59:01.572Z,7.30
2018-06-21T03:01:29.148Z,7.37
2018-06-21T03:03:56.695Z,7.20
2018-06-21T03:06:24.131Z,7.93
2018-06-21T03:08:51.620Z,7.60
2018-06-21T03:11:19.132Z,7.83
2018-06-21T03:13:46.594Z,8.00
2018-06-21T03:16:14.087Z,6.93
2018-06-21T03:18:41.563Z,7.40
2018-06-21T03:21:09.142Z,7.63
2018-06-21T03:23:36.591Z,7.93
2018-06-21T03:26:04.210Z,8.00
2018-06-21T03:28:31.802Z,7.53
2018-06-21T03:30:59.270Z,7.17
2018-06-21T03:33:26.814Z,8.10
2018-06-21T03:35:54.309Z,7.27
2018-06-21T03:38:21.893Z,7.97
2018-06-21T03:40:49.711Z,7.60
2018-06-21T03:43:17.243Z,8.03
2018-06-21T03:45:44.730Z,7.57
2018-06-21T03:48:12.254Z,7.90
2018-06-21T03:50:39.783Z,8.67
2018-06-21T03:53:07.266Z,8.37
2018-06-21T03:55:34.755Z,6.40
2018-06-21T03:58:02.343Z,7.70
2018-06-21T04:00:29.958Z,7.77
2018-06-21T04:02:57.382Z,7.27
2018-06-21T04:05:25.063Z,6.80
2018-06-21T04:07:52.514Z,7.07
2018-06-21T04:10:19.991Z,7.23
2018-06-21T04:12:47.494Z,7.60
2018-06-21T04:15:15.052Z,7.10
2018-06-21T04:17:42.519Z,7.20
2018-06-21T04:20:10.043Z,8.93
2018-06-21T04:22:37.595Z,7.87
2018-06-21T04:25:05.158Z,7.80
2018-06-21T04:27:32.703Z,8.50
2018-06-21T04:30:00.196Z,7.80
2018-06-21T04:32:27.764Z,8.63
2018-06-21T04:34:55.355Z,8.73
2018-06-21T04:37:22.794Z,8.00
2018-06-21T04:39:50.280Z,8.80
2018-06-21T04:42:17.860Z,9.50
2018-06-21T04:44:45.372Z,10.10
2018-06-21T04:47:12.880Z,10.70
2018-06-21T04:49:40.396Z,76.53
2018-06-21T04:52:07.829Z,71.53
2018-06-21T04:54:35.299Z,14.33
2018-06-21T04:57:02.804Z,14.37
2018-06-21T04:59:30.282Z,12.93
2018-06-21T05:01:57.796Z,13.23
2018-06-21T05:04:25.259Z,13.50
2018-06-21T05:06:52.730Z,12.70
2018-06-21T05:09:20.192Z,15.07
2018-06-21T05:11:47.732Z,14.23
2018-06-21T05:14:15.225Z,15.37
2018-06-21T05:16:42.920Z,15.07
2018-06-21T05:19:10.435Z,15.27
2018-06-21T05:21:37.940Z,16.90
2018-06-21T05:24:05.806Z,15.97
2018-06-21T05:26:33.363Z,16.97
2018-06-21T05:29:01.257Z,18.57
2018-06-21T05:31:28.919Z,16.70
2018-06-21T05:33:56.621Z,79.93
2018-06-21T05:36:24.126Z,64.07
2018-06-21T05:38:51.689Z,20.17
2018-06-21T05:41:19.215Z,20.60
2018-06-21T05:43:46.652Z,18.87
2018-06-21T05:46:14.235Z,18.07
2018-06-21T05:48:41.699Z,15.53
2018-06-21T05:51:09.162Z,17.33
2018-06-21T05:53:36.762Z,18.20
2018-06-21T05:56:04.976Z,15.47
2018-06-21T05:58:32.486Z,15.53
2018-06-21T06:00:59.929Z,15.73
2018-06-21T06:03:27.455Z,16.70
2018-06-21T06:05:54.965Z,15.70
2018-06-21T06:08:22.622Z,16.20
2018-06-21T06:10:50.022Z,14.93
2018-06-21T06:13:17.521Z,15.00
2018-06-21T06:15:45.007Z,14.83
2018-06-21T06:18:12.548Z,12.83
2018-06-21T06:20:39.968Z,31.73
2018-06-21T06:23:07.443Z,29.63
2018-06-21T06:25:34.951Z,14.70
2018-06-21T06:28:02.548Z,13.70
2018-06-21T06:30:30.022Z,14.20
2018-06-21T06:32:57.942Z,13.83
2018-06-21T06:35:29.078Z,12.03
2018-06-21T06:37:56.928Z,12.40
2018-06-21T06:40:24.489Z,12.10
2018-06-21T06:42:52.050Z,13.83
2018-06-21T06:45:19.525Z,13.47
2018-06-21T06:47:47.082Z,13.33
2018-06-21T06:50:14.630Z,13.50
2018-06-21T06:52:42.117Z,12.53
2018-06-21T06:55:09.653Z,13.20
2018-06-21T06:57:37.111Z,13.73
2018-06-21T07:00:05.887Z,13.03
2018-06-21T07:02:33.314Z,10.50
2018-06-21T07:05:00.732Z,13.13
2018-06-21T07:07:28.225Z,11.77
2018-06-21T07:09:55.687Z,11.37
2018-06-21T07:12:23.215Z,12.10
2018-06-21T07:14:50.681Z,24.77
2018-06-21T07:17:18.195Z,14.30
2018-06-21T07:19:45.687Z,24.17
2018-06-21T07:22:13.197Z,50.97
2018-06-21T07:24:40.650Z,11.20
2018-06-21T07:27:08.084Z,9.47
2018-06-21T07:29:35.565Z,6.70
2018-06-21T07:32:03.306Z,6.73
2018-06-21T07:34:30.851Z,5.57
2018-06-21T07:36:58.330Z,4.33
2018-06-21T07:39:25.830Z,3.80
2018-06-21T07:41:53.290Z,4.20
2018-06-21T07:44:20.746Z,4.37
2018-06-21T07:46:48.214Z,3.00
2018-06-21T07:49:15.630Z,2.80
2018-06-21T07:51:43.157Z,2.90
2018-06-21T07:54:10.614Z,3.10
2018-06-21T07:56:38.151Z,2.67
2018-06-21T07:59:05.688Z,11.60
2018-06-21T08:01:33.090Z,57.37
2018-06-21T08:04:00.695Z,3.27
2018-06-21T08:06:28.120Z,3.13
2018-06-21T08:08:55.577Z,3.47
2018-06-21T08:11:23.006Z,2.87
2018-06-21T08:13:50.491Z,3.37
2018-06-21T08:16:18.027Z,2.70
2018-06-21T08:18:45.537Z,2.50
2018-06-21T08:21:13.003Z,2.53
2018-06-21T08:23:40.486Z,2.87
2018-06-21T08:26:07.954Z,2.73
2018-06-21T08:28:35.443Z,3.53
2018-06-21T08:31:03.369Z,3.40
2018-06-21T08:33:30.929Z,2.60
2018-06-21T08:35:58.647Z,2.93
2018-06-21T08:38:26.152Z,3.90
2018-06-21T08:40:53.571Z,2.30
2018-06-21T08:43:21.010Z,2.23
2018-06-21T08:45:48.541Z,3.00
2018-06-21T08:48:15.947Z,2.40
2018-06-21T08:50:43.399Z,2.20
2018-06-21T08:53:10.868Z,2.50
2018-06-21T08:55:38.333Z,7.63
2018-06-21T08:58:05.883Z,2.80
2018-06-21T09:00:33.328Z,2.53
2018-06-21T09:03:00.783Z,2.53
2018-06-21T09:05:28.247Z,2.40
2018-06-21T09:07:55.737Z,2.37
2018-06-21T09:10:23.213Z,2.63
2018-06-21T09:12:50.651Z,2.20
2018-06-21T09:15:18.159Z,3.50
2018-06-21T09:17:45.587Z,2.37
2018-06-21T09:20:13.053Z,2.27
2018-06-21T09:22:40.518Z,2.60
2018-06-21T09:25:08.055Z,2.90
2018-06-21T09:27:35.530Z,3.30
2018-06-21T09:30:03.115Z,3.00
2018-06-21T09:32:30.935Z,2.60
2018-06-21T09:34:58.435Z,2.70
2018-06-21T09:37:31.431Z,1.80
2018-06-21T09:40:04.708Z,2.00
2018-06-21T09:42:37.959Z,2.17
2018-06-21T09:45:05.440Z,2.33
2018-06-21T09:47:38.516Z,2.47
2018-06-21T09:50:06.097Z,2.00
2018-06-21T09:52:33.689Z,2.80
2018-06-21T09:55:01.107Z,2.37
2018-06-21T09:57:28.620Z,2.30
2018-06-21T09:59:56.082Z,2.20
2018-06-21T10:02:23.595Z,2.37
2018-06-21T10:04:51.026Z,2.80
2018-06-21T10:07:18.704Z,2.60
2018-06-21T10:09:46.179Z,2.57
2018-06-21T10:12:13.606Z,2.20
2018-06-21T10:14:41.061Z,28.73
2018-06-21T10:17:09.556Z,4.57
2018-06-21T10:19:38.057Z,2.70
2018-06-21T10:22:06.017Z,2.47
2018-06-21T10:24:33.463Z,1.77
2018-06-21T10:27:01.059Z,1.80
2018-06-21T10:29:28.557Z,2.47
2018-06-21T10:31:56.071Z,1.80
2018-06-21T10:34:23.538Z,1.77
2018-06-21T10:36:50.998Z,1.93
2018-06-21T10:39:18.467Z,2.03
2018-06-21T10:41:45.959Z,2.20
2018-06-21T10:44:13.476Z,2.47
2018-06-21T10:46:40.954Z,1.47
2018-06-21T10:49:08.442Z,2.07
2018-06-21T10:51:36.030Z,2.30
2018-06-21T10:54:03.523Z,2.40
2018-06-21T10:56:31.627Z,1.57
2018-06-21T10:58:59.110Z,2.10
2018-06-21T11:01:26.505Z,2.50
2018-06-21T11:03:53.966Z,1.57
2018-06-21T11:06:21.494Z,1.70
2018-06-21T11:08:48.910Z,1.40
2018-06-21T11:11:16.455Z,2.20
2018-06-21T11:13:43.865Z,2.00
2018-06-21T11:16:11.398Z,2.13
2018-06-21T11:18:39.684Z,1.50
2018-06-21T11:21:07.159Z,1.67
2018-06-21T11:23:34.606Z,1.50
2018-06-21T11:26:02.072Z,1.57
2018-06-21T11:28:29.502Z,1.10
2018-06-21T11:30:57.021Z,1.70
2018-06-21T11:33:24.582Z,1.50
2018-06-21T11:35:52.047Z,1.70
2018-06-21T11:38:19.531Z,1.80
2018-06-21T11:40:46.997Z,1.90
2018-06-21T11:43:14.396Z,1.57
2018-06-21T11:45:41.959Z,1.77
2018-06-21T11:48:09.430Z,1.90
2018-06-21T11:50:36.887Z,1.70
2018-06-21T11:53:04.677Z,1.53
2018-06-21T11:55:32.105Z,1.60
2018-06-21T11:57:59.558Z,1.83
2018-06-21T12:00:27.041Z,1.60
2018-06-21T12:02:54.461Z,1.97
2018-06-21T12:05:21.941Z,1.87
2018-06-21T12:07:49.394Z,1.47
2018-06-21T12:10:16.856Z,2.00
2018-06-21T12:12:44.265Z,1.40
2018-06-21T12:15:11.661Z,1.53
2018-06-21T12:17:39.089Z,2.13
2018-06-21T12:20:06.533Z,2.07
2018-06-21T12:22:33.998Z,2.87
2018-06-21T12:25:01.483Z,1.93
2018-06-21T12:27:28.968Z,1.77
2018-06-21T12:29:56.655Z,1.70
2018-06-21T12:32:24.250Z,1.90
2018-06-21T12:34:51.778Z,2.10
2018-06-21T12:37:19.195Z,2.03
2018-06-21T12:39:46.623Z,2.03
2018-06-21T12:42:14.117Z,1.57
2018-06-21T12:44:41.691Z,2.20
2018-06-21T12:47:09.158Z,1.70
2018-06-21T12:49:36.723Z,2.10
2018-06-21T12:52:04.284Z,2.13
2018-06-21T12:54:31.771Z,2.07
2018-06-21T12:56:59.178Z,2.03
2018-06-21T12:59:26.597Z,1.57
2018-06-21T13:01:54.153Z,1.80
2018-06-21T13:04:21.633Z,2.10
2018-06-21T13:06:49.057Z,1.90
2018-06-21T13:09:28.677Z,1.57
2018-06-21T13:12:36.165Z,2.03
2018-06-21T13:15:04.263Z,1.93
2018-06-21T13:17:32.022Z,1.67
2018-06-21T13:20:00.730Z,1.30
2018-06-21T13:22:28.511Z,1.90
2018-06-21T13:24:56.067Z,1.43
2018-06-21T13:27:23.604Z,1.40
2018-06-21T13:29:51.161Z,2.00
2018-06-21T13:32:19.191Z,2.27
2018-06-21T13:34:46.682Z,1.93
2018-06-21T13:37:14.157Z,1.80
2018-06-21T13:39:41.694Z,2.50
2018-06-21T13:42:09.138Z,2.27
2018-06-21T13:44:36.590Z,2.13
2018-06-21T13:47:04.362Z,2.30
2018-06-21T13:49:31.741Z,1.80
2018-06-21T13:51:59.251Z,1.50
2018-06-21T13:54:27.190Z,1.60
2018-06-21T13:56:54.639Z,2.03
2018-06-21T13:59:22.101Z,1.87
2018-06-21T14:01:50.074Z,2.00
2018-06-21T14:04:17.498Z,1.53
2018-06-21T14:06:45.013Z,2.60
2018-06-21T14:09:12.658Z,2.00
2018-06-21T14:11:40.643Z,1.77
2018-06-21T14:14:08.133Z,1.50
2018-06-21T14:16:36.009Z,2.17
2018-06-21T14:19:03.492Z,2.20
2018-06-21T14:21:31.019Z,3.10
2018-06-21T14:23:58.525Z,1.80
2018-06-21T14:26:25.974Z,1.90
2018-06-21T14:28:54.012Z,1.50
2018-06-21T14:31:22.359Z,2.07
2018-06-21T14:33:49.843Z,1.80
2018-06-21T14:36:17.411Z,1.63
2018-06-21T14:38:44.838Z,2.77
2018-06-21T14:41:12.313Z,1.90
2018-06-21T14:43:39.999Z,3.00
2018-06-21T14:46:07.455Z,1.57
2018-06-21T14:48:34.976Z,1.50
2018-06-21T14:51:02.646Z,1.50
2018-06-21T14:53:30.154Z,1.93
2018-06-21T14:55:57.690Z,2.40
2018-06-21T14:58:25.337Z,1.30
2018-06-21T15:00:52.815Z,1.97
2018-06-21T15:03:20.275Z,1.47
2018-06-21T15:05:47.951Z,1.27
2018-06-21T15:08:15.478Z,1.93
2018-06-21T15:10:42.940Z,1.83
2018-06-21T15:13:10.778Z,1.90
2018-06-21T15:15:38.247Z,1.37
2018-06-21T15:18:06.217Z,0.97
2018-06-21T15:20:33.756Z,1.50
2018-06-21T15:23:01.326Z,1.23
2018-06-21T15:25:28.922Z,2.30
2018-06-21T15:27:56.386Z,1.83
2018-06-21T15:30:23.935Z,2.77
2018-06-21T15:32:51.342Z,2.17
2018-06-21T15:35:19.199Z,1.40
2018-06-21T15:37:46.871Z,1.30
2018-06-21T15:40:14.357Z,1.97
2018-06-21T15:42:41.779Z,1.73
2018-06-21T15:45:09.258Z,1.77
2018-06-21T15:47:36.733Z,2.17
2018-06-21T15:50:04.515Z,1.47
2018-06-21T15:52:32.261Z,1.80
2018-06-21T15:54:59.764Z,19.20
2018-06-21T15:57:27.379Z,2.70
2018-06-21T15:59:55.111Z,1.60
2018-06-21T16:02:22.802Z,2.23
2018-06-21T16:04:50.321Z,1.93
2018-06-21T16:07:17.773Z,2.43
2018-06-21T16:09:45.273Z,1.53
2018-06-21T16:12:12.754Z,1.73
2018-06-21T16:14:40.375Z,1.93
2018-06-21T16:17:07.930Z,2.17
2018-06-21T16:19:35.602Z,1.30
2018-06-21T16:22:03.154Z,1.30
2018-06-21T16:24:30.983Z,1.10
2018-06-21T16:26:58.452Z,1.53
2018-06-21T16:29:25.950Z,1.80
2018-06-21T16:31:53.838Z,1.90
2018-06-21T16:34:21.728Z,1.30
2018-06-21T16:36:49.150Z,1.57
2018-06-21T16:39:16.776Z,1.47
2018-06-21T16:41:44.473Z,1.20
2018-06-21T16:44:11.975Z,2.10
2018-06-21T16:46:39.465Z,12.20
2018-06-21T16:49:06.896Z,4.03
2018-06-21T16:51:34.574Z,1.97
2018-06-21T16:54:02.073Z,2.50
2018-06-21T16:56:29.876Z,2.17
2018-06-21T16:58:57.352Z,1.77
2018-06-21T17:01:25.010Z,1.60
2018-06-21T17:03:52.513Z,2.37
2018-06-21T17:06:20.004Z,1.90
2018-06-21T17:08:47.440Z,1.60
2018-06-21T17:11:14.926Z,1.70
2018-06-21T17:13:42.934Z,1.27
2018-06-21T17:16:10.434Z,1.93
2018-06-21T17:18:37.811Z,2.23
2018-06-21T17:21:05.375Z,1.63
2018-06-21T17:23:33.138Z,2.00
2018-06-21T17:26:00.671Z,1.70
2018-06-21T17:28:28.420Z,1.63
2018-06-21T17:30:55.904Z,2.00
2018-06-21T17:33:23.435Z,1.70
2018-06-21T17:35:51.139Z,2.00
2018-06-21T17:38:18.806Z,2.17
2018-06-21T17:40:46.586Z,2.00
2018-06-21T17:43:14.107Z,1.93
2018-06-21T17:45:42.059Z,2.00
2018-06-21T17:48:09.534Z,2.43
2018-06-21T17:50:37.086Z,2.67
2018-06-21T17:53:04.510Z,1.20
2018-06-21T17:55:32.215Z,8.37
2018-06-21T17:57:59.757Z,12.03
2018-06-21T18:00:27.267Z,2.87
2018-06-21T18:02:54.826Z,2.20
2018-06-21T18:05:22.286Z,1.47
2018-06-21T18:07:49.869Z,2.00
2018-06-21T18:10:17.313Z,1.57
2018-06-21T18:12:45.109Z,2.10
2018-06-21T18:15:12.620Z,2.37
2018-06-21T18:17:40.289Z,1.83
2018-06-21T18:20:07.813Z,1.53
2018-06-21T18:22:35.347Z,1.93
2018-06-21T18:25:03.267Z,2.80
2018-06-21T18:27:30.832Z,1.90
2018-06-21T18:29:58.662Z,1.40
2018-06-21T18:32:26.235Z,1.30
2018-06-21T18:34:53.976Z,2.37
2018-06-21T18:37:21.539Z,2.53
2018-06-21T18:39:49.193Z,1.83
2018-06-21T18:42:16.895Z,2.73
2018-06-21T18:44:44.637Z,1.70
2018-06-21T18:47:12.256Z,1.70
2018-06-21T18:49:39.814Z,1.90
2018-06-21T18:52:07.278Z,1.57
2018-06-21T18:54:34.941Z,1.60
2018-06-21T18:57:02.416Z,1.70
2018-06-21T18:59:29.958Z,2.20
2018-06-21T19:01:57.546Z,20.37
2018-06-21T19:04:25.260Z,2.40
2018-06-21T19:06:58.861Z,2.80
2018-06-21T19:09:32.153Z,2.40
2018-06-21T19:12:03.948Z,2.20
2018-06-21T19:14:31.550Z,2.00
2018-06-21T19:16:59.214Z,2.70
2018-06-21T19:19:26.812Z,1.90
2018-06-21T19:21:54.926Z,2.07
2018-06-21T19:24:22.419Z,2.60
2018-06-21T19:26:49.954Z,2.83
2018-06-21T19:29:17.439Z,2.17
2018-06-21T19:31:45.071Z,2.07
2018-06-21T19:34:12.991Z,2.27
2018-06-21T19:36:40.527Z,1.90
2018-06-21T19:39:09.286Z,2.10
2018-06-21T19:41:37.818Z,2.17
2018-06-21T19:44:05.519Z,1.97
2018-06-21T19:46:33.099Z,1.83
2018-06-21T19:49:00.571Z,2.50
2018-06-21T19:51:28.092Z,3.67
2018-06-21T19:53:55.774Z,3.20
2018-06-21T19:56:23.671Z,2.50
2018-06-21T19:58:51.173Z,3.03
2018-06-21T20:01:19.076Z,2.83
2018-06-21T20:03:47.147Z,3.30
2018-06-21T20:06:14.629Z,2.43
2018-06-21T20:08:42.562Z,2.70
2018-06-21T20:11:15.598Z,1.90
2018-06-21T20:13:48.178Z,2.23
2018-06-21T20:16:17.578Z,2.60
2018-06-21T20:18:45.255Z,3.13
2018-06-21T20:21:14.388Z,2.33
2018-06-21T20:23:44.027Z,1.80
2018-06-21T20:26:11.873Z,2.50
2018-06-21T20:28:39.962Z,2.10
2018-06-21T20:31:09.177Z,2.73
2018-06-21T20:33:36.660Z,2.63
2018-06-21T20:36:04.382Z,2.80
2018-06-21T20:38:32.210Z,2.07
2018-06-21T20:40:59.891Z,2.23
2018-06-21T20:43:27.402Z,2.10
2018-06-21T20:45:55.022Z,2.10
2018-06-21T20:48:22.796Z,1.80
2018-06-21T20:50:50.522Z,1.77
2018-06-21T20:53:18.349Z,1.93
2018-06-21T20:55:45.810Z,1.77
2018-06-21T20:58:13.373Z,2.60
2018-06-21T21:00:41.069Z,2.17
2018-06-21T21:03:08.537Z,1.57
2018-06-21T21:05:36.102Z,1.70
2018-06-21T21:08:03.657Z,2.00
2018-06-21T21:10:31.419Z,1.67
2018-06-21T21:12:58.930Z,2.30
2018-06-21T21:15:26.461Z,1.60
2018-06-21T21:17:53.939Z,2.13
2018-06-21T21:20:21.517Z,2.10
2018-06-21T21:22:49.012Z,2.10
2018-06-21T21:25:16.411Z,2.43
2018-06-21T21:27:43.925Z,2.70
2018-06-21T21:30:11.409Z,2.00
2018-06-21T21:32:38.860Z,1.80
2018-06-21T21:35:06.282Z,1.67
2018-06-21T21:37:33.735Z,1.80
2018-06-21T21:40:02.454Z,2.13
2018-06-21T21:42:31.093Z,2.50
2018-06-21T21:44:58.804Z,3.00
2018-06-21T21:47:26.193Z,1.60
2018-06-21T21:49:54.128Z,2.00
2018-06-21T21:52:21.821Z,1.77
2018-06-21T21:54:49.246Z,2.20
2018-06-21T21:57:16.672Z,3.10
2018-06-21T21:59:44.432Z,2.30
2018-06-21T22:02:11.829Z,1.73
2018-06-21T22:04:39.331Z,1.63
2018-06-21T22:07:06.831Z,2.40
2018-06-21T22:09:34.325Z,2.53
2018-06-21T22:12:01.963Z,1.67
2018-06-21T22:14:29.467Z,2.53
2018-06-21T22:16:56.926Z,2.17
2018-06-21T22:19:25.300Z,2.77
2018-06-21T22:21:52.749Z,2.63
2018-06-21T22:24:20.434Z,2.77
2018-06-21T22:26:47.858Z,2.10
2018-06-21T22:29:15.490Z,1.80
2018-06-21T22:31:43.118Z,2.50
2018-06-21T22:34:10.583Z,2.70
2018-06-21T22:36:38.023Z,2.50
2018-06-21T22:39:07.239Z,4.27
2018-06-21T22:41:34.690Z,3.13
2018-06-21T22:44:02.311Z,2.30
2018-06-21T22:46:29.818Z,3.40
2018-06-21T22:48:57.267Z,2.87
2018-06-21T22:51:24.716Z,2.40
2018-06-21T22:53:52.096Z,2.17
2018-06-21T22:56:19.575Z,2.60
2018-06-21T22:58:46.993Z,2.60
2018-06-21T23:01:14.450Z,2.30
2018-06-21T23:03:41.884Z,2.07
2018-06-21T23:06:09.627Z,2.47
2018-06-21T23:08:43.087Z,1.77
2018-06-21T23:11:10.543Z,1.90
2018-06-21T23:13:38.124Z,2.17
2018-06-21T23:16:05.757Z,2.30
2018-06-21T23:18:44.815Z,1.53
2018-06-21T23:21:12.295Z,2.73
2018-06-21T23:23:39.733Z,3.00
2018-06-21T23:26:07.363Z,1.70
2018-06-21T23:28:34.815Z,2.00
2018-06-21T23:31:02.782Z,2.80
2018-06-21T23:33:30.548Z,2.43
2018-06-21T23:35:58.213Z,2.53
2018-06-21T23:38:25.634Z,1.80
2018-06-21T23:40:53.190Z,2.60
2018-06-21T23:43:20.872Z,2.23
2018-06-21T23:45:48.266Z,2.07
2018-06-21T23:48:15.663Z,2.83
2018-06-21T23:50:43.134Z,1.80
2018-06-21T23:53:10.649Z,2.23
2018-06-21T23:55:38.285Z,2.30
2018-06-21T23:58:05.764Z,2.10
